sensor_id;sensor_type;location;lat;lon;timestamp;P1;durP1;ratioP1;P2;durP2;ratioP2
20154;SDS011;10238;49.556;10.956;2023-12-20T00:01:56;5.50;;;3.83;;
20154;SDS011;10238;49.556;10.956;2023-12-20T00:04:44;6.47;;;3.55;;
20154;SDS011;10238;49.556;10.956;2023-12-20T00:07:32;4.63;;;3.25;;
20154;SDS011;10238;49.556;10.956;2023-12-20T00:10:20;4.47;;;3.22;;
20154;SDS011;10238;49.556;10.956;2023-12-20T00:13:07;5.00;;;3.33;;
20154;SDS011;10238;49.556;10.956;2023-12-20T00:15:55;5.43;;;3.42;;
20154;SDS011;10238;49.556;10.956;2023-12-20T00:18:43;5.72;;;3.67;;
20154;SDS011;10238;49.556;10.956;2023-12-20T00:21:31;6.88;;;3.40;;
20154;SDS011;10238;49.556;10.956;2023-12-20T00:24:18;5.28;;;3.47;;
20154;SDS011;10238;49.556;10.956;2023-12-20T00:27:06;5.10;;;3.42;;
20154;SDS011;10238;49.556;10.956;2023-12-20T00:29:53;3.60;;;2.92;;
20154;SDS011;10238;49.556;10.956;2023-12-20T00:32:41;5.90;;;3.20;;
20154;SDS011;10238;49.556;10.956;2023-12-20T00:35:33;5.75;;;3.80;;
20154;SDS011;10238;49.556;10.956;2023-12-20T00:38:20;3.38;;;3.08;;
20154;SDS011;10238;49.556;10.956;2023-12-20T00:41:08;3.55;;;2.92;;
20154;SDS011;10238;49.556;10.956;2023-12-20T00:43:56;2.70;;;2.47;;
20154;SDS011;10238;49.556;10.956;2023-12-20T00:46:43;3.97;;;2.95;;
20154;SDS011;10238;49.556;10.956;2023-12-20T00:49:31;4.20;;;2.65;;
20154;SDS011;10238;49.556;10.956;2023-12-20T00:52:20;2.85;;;2.00;;
20154;SDS011;10238;49.556;10.956;2023-12-20T00:55:08;3.53;;;2.75;;
20154;SDS011;10238;49.556;10.956;2023-12-20T00:57:56;3.35;;;2.50;;
20154;SDS011;10238;49.556;10.956;2023-12-20T01:00:45;2.70;;;2.50;;
20154;SDS011;10238;49.556;10.956;2023-12-20T01:03:32;3.47;;;2.63;;
20154;SDS011;10238;49.556;10.956;2023-12-20T01:06:20;4.22;;;2.40;;
20154;SDS011;10238;49.556;10.956;2023-12-20T01:09:08;2.20;;;2.00;;
20154;SDS011;10238;49.556;10.956;2023-12-20T01:11:56;2.30;;;2.10;;
20154;SDS011;10238;49.556;10.956;2023-12-20T01:14:44;2.92;;;2.33;;
20154;SDS011;10238;49.556;10.956;2023-12-20T01:17:31;2.55;;;2.35;;
20154;SDS011;10238;49.556;10.956;2023-12-20T01:20:18;2.80;;;2.28;;
20154;SDS011;10238;49.556;10.956;2023-12-20T01:23:06;1.83;;;1.63;;
20154;SDS011;10238;49.556;10.956;2023-12-20T01:25:55;3.80;;;1.70;;
20154;SDS011;10238;49.556;10.956;2023-12-20T01:28:44;2.20;;;2.00;;
20154;SDS011;10238;49.556;10.956;2023-12-20T01:31:32;1.83;;;1.73;;
20154;SDS011;10238;49.556;10.956;2023-12-20T01:34:19;2.33;;;1.70;;
20154;SDS011;10238;49.556;10.956;2023-12-20T01:37:07;1.70;;;1.52;;
20154;SDS011;10238;49.556;10.956;2023-12-20T01:39:55;2.15;;;1.42;;
20154;SDS011;10238;49.556;10.956;2023-12-20T01:42:44;1.60;;;1.50;;
20154;SDS011;10238;49.556;10.956;2023-12-20T01:45:31;1.60;;;1.50;;
20154;SDS011;10238;49.556;10.956;2023-12-20T01:48:19;1.45;;;1.27;;
20154;SDS011;10238;49.556;10.956;2023-12-20T01:51:07;1.95;;;1.25;;
20154;SDS011;10238;49.556;10.956;2023-12-20T01:53:56;1.10;;;1.10;;
20154;SDS011;10238;49.556;10.956;2023-12-20T01:56:46;1.40;;;1.30;;
20154;SDS011;10238;49.556;10.956;2023-12-20T01:59:37;1.45;;;1.35;;
20154;SDS011;10238;49.556;10.956;2023-12-20T02:02:27;1.48;;;1.38;;
20154;SDS011;10238;49.556;10.956;2023-12-20T02:05:16;2.40;;;1.48;;
20154;SDS011;10238;49.556;10.956;2023-12-20T02:08:04;1.70;;;1.60;;
20154;SDS011;10238;49.556;10.956;2023-12-20T02:10:53;1.45;;;1.30;;
20154;SDS011;10238;49.556;10.956;2023-12-20T02:13:42;1.40;;;1.30;;
20154;SDS011;10238;49.556;10.956;2023-12-20T02:16:30;1.13;;;1.10;;
20154;SDS011;10238;49.556;10.956;2023-12-20T02:19:18;1.50;;;1.40;;
20154;SDS011;10238;49.556;10.956;2023-12-20T02:22:09;1.20;;;1.20;;
20154;SDS011;10238;49.556;10.956;2023-12-20T02:24:57;1.23;;;1.20;;
20154;SDS011;10238;49.556;10.956;2023-12-20T02:27:45;1.55;;;1.45;;
20154;SDS011;10238;49.556;10.956;2023-12-20T02:30:33;1.30;;;1.20;;
20154;SDS011;10238;49.556;10.956;2023-12-20T02:33:21;1.00;;;1.00;;
20154;SDS011;10238;49.556;10.956;2023-12-20T02:36:09;1.50;;;1.40;;
20154;SDS011;10238;49.556;10.956;2023-12-20T02:38:58;1.00;;;1.00;;
20154;SDS011;10238;49.556;10.956;2023-12-20T02:41:46;1.00;;;1.00;;
20154;SDS011;10238;49.556;10.956;2023-12-20T02:44:33;1.15;;;1.15;;
20154;SDS011;10238;49.556;10.956;2023-12-20T02:47:22;0.90;;;0.90;;
20154;SDS011;10238;49.556;10.956;2023-12-20T02:50:09;1.25;;;1.10;;
20154;SDS011;10238;49.556;10.956;2023-12-20T02:52:56;1.35;;;1.25;;
20154;SDS011;10238;49.556;10.956;2023-12-20T02:55:45;0.95;;;0.95;;
20154;SDS011;10238;49.556;10.956;2023-12-20T02:58:33;1.27;;;1.15;;
20154;SDS011;10238;49.556;10.956;2023-12-20T03:01:21;1.10;;;1.10;;
20154;SDS011;10238;49.556;10.956;2023-12-20T03:04:08;1.00;;;0.95;;
20154;SDS011;10238;49.556;10.956;2023-12-20T03:06:56;1.10;;;1.10;;
20154;SDS011;10238;49.556;10.956;2023-12-20T03:09:43;1.13;;;1.10;;
20154;SDS011;10238;49.556;10.956;2023-12-20T03:12:52;1.10;;;1.10;;
20154;SDS011;10238;49.556;10.956;2023-12-20T03:15:40;1.15;;;1.05;;
20154;SDS011;10238;49.556;10.956;2023-12-20T03:18:27;1.02;;;1.02;;
20154;SDS011;10238;49.556;10.956;2023-12-20T03:21:14;1.20;;;1.10;;
20154;SDS011;10238;49.556;10.956;2023-12-20T03:24:02;1.13;;;1.02;;
20154;SDS011;10238;49.556;10.956;2023-12-20T03:26:50;1.63;;;1.20;;
20154;SDS011;10238;49.556;10.956;2023-12-20T03:29:39;1.15;;;1.05;;
20154;SDS011;10238;49.556;10.956;2023-12-20T03:32:26;0.90;;;0.90;;
20154;SDS011;10238;49.556;10.956;2023-12-20T03:35:14;0.90;;;0.90;;
20154;SDS011;10238;49.556;10.956;2023-12-20T03:38:02;1.75;;;1.40;;
20154;SDS011;10238;49.556;10.956;2023-12-20T03:40:50;1.00;;;1.00;;
20154;SDS011;10238;49.556;10.956;2023-12-20T03:43:37;1.25;;;1.15;;
20154;SDS011;10238;49.556;10.956;2023-12-20T03:46:26;0.85;;;0.85;;
20154;SDS011;10238;49.556;10.956;2023-12-20T03:49:14;0.90;;;0.90;;
20154;SDS011;10238;49.556;10.956;2023-12-20T03:52:01;0.88;;;0.88;;
20154;SDS011;10238;49.556;10.956;2023-12-20T03:54:49;0.90;;;0.90;;
20154;SDS011;10238;49.556;10.956;2023-12-20T03:57:37;0.98;;;0.90;;
20154;SDS011;10238;49.556;10.956;2023-12-20T04:00:24;1.10;;;1.10;;
20154;SDS011;10238;49.556;10.956;2023-12-20T04:03:13;1.58;;;0.90;;
20154;SDS011;10238;49.556;10.956;2023-12-20T04:06:00;1.00;;;1.00;;
20154;SDS011;10238;49.556;10.956;2023-12-20T04:08:48;1.08;;;1.00;;
20154;SDS011;10238;49.556;10.956;2023-12-20T04:11:36;0.90;;;0.90;;
20154;SDS011;10238;49.556;10.956;2023-12-20T04:14:24;0.73;;;0.73;;
20154;SDS011;10238;49.556;10.956;2023-12-20T04:17:11;1.13;;;1.02;;
20154;SDS011;10238;49.556;10.956;2023-12-20T04:20:00;1.08;;;1.05;;
20154;SDS011;10238;49.556;10.956;2023-12-20T04:22:48;0.80;;;0.80;;
20154;SDS011;10238;49.556;10.956;2023-12-20T04:25:36;0.80;;;0.80;;
20154;SDS011;10238;49.556;10.956;2023-12-20T04:28:23;0.82;;;0.82;;
20154;SDS011;10238;49.556;10.956;2023-12-20T04:31:11;0.93;;;0.93;;
20154;SDS011;10238;49.556;10.956;2023-12-20T04:33:59;1.17;;;1.08;;
20154;SDS011;10238;49.556;10.956;2023-12-20T04:36:47;1.13;;;1.10;;
20154;SDS011;10238;49.556;10.956;2023-12-20T04:39:35;0.70;;;0.70;;
20154;SDS011;10238;49.556;10.956;2023-12-20T04:42:23;0.80;;;0.80;;
20154;SDS011;10238;49.556;10.956;2023-12-20T04:45:10;1.00;;;1.00;;
20154;SDS011;10238;49.556;10.956;2023-12-20T04:47:59;1.00;;;1.00;;
20154;SDS011;10238;49.556;10.956;2023-12-20T04:50:48;1.10;;;0.90;;
20154;SDS011;10238;49.556;10.956;2023-12-20T04:53:37;0.90;;;0.90;;
20154;SDS011;10238;49.556;10.956;2023-12-20T04:56:25;0.88;;;0.88;;
20154;SDS011;10238;49.556;10.956;2023-12-20T04:59:12;0.90;;;0.90;;
20154;SDS011;10238;49.556;10.956;2023-12-20T05:02:00;0.88;;;0.88;;
20154;SDS011;10238;49.556;10.956;2023-12-20T05:04:48;0.80;;;0.80;;
20154;SDS011;10238;49.556;10.956;2023-12-20T05:07:39;0.90;;;0.90;;
20154;SDS011;10238;49.556;10.956;2023-12-20T05:10:29;0.77;;;0.77;;
20154;SDS011;10238;49.556;10.956;2023-12-20T05:13:16;0.82;;;0.82;;
20154;SDS011;10238;49.556;10.956;2023-12-20T05:16:05;0.93;;;0.93;;
20154;SDS011;10238;49.556;10.956;2023-12-20T05:18:53;1.10;;;1.00;;
20154;SDS011;10238;49.556;10.956;2023-12-20T05:21:41;1.02;;;0.95;;
20154;SDS011;10238;49.556;10.956;2023-12-20T05:24:29;0.90;;;0.90;;
20154;SDS011;10238;49.556;10.956;2023-12-20T05:27:18;1.10;;;1.00;;
20154;SDS011;10238;49.556;10.956;2023-12-20T05:30:06;1.00;;;1.00;;
20154;SDS011;10238;49.556;10.956;2023-12-20T05:32:54;1.02;;;1.02;;
20154;SDS011;10238;49.556;10.956;2023-12-20T05:35:41;1.10;;;1.00;;
20154;SDS011;10238;49.556;10.956;2023-12-20T05:38:29;1.25;;;1.13;;
20154;SDS011;10238;49.556;10.956;2023-12-20T05:41:17;1.00;;;1.00;;
20154;SDS011;10238;49.556;10.956;2023-12-20T05:44:05;1.00;;;1.00;;
20154;SDS011;10238;49.556;10.956;2023-12-20T05:46:53;1.70;;;1.60;;
20154;SDS011;10238;49.556;10.956;2023-12-20T05:49:40;1.55;;;1.40;;
20154;SDS011;10238;49.556;10.956;2023-12-20T05:52:28;2.28;;;1.50;;
20154;SDS011;10238;49.556;10.956;2023-12-20T05:55:17;1.63;;;1.48;;
20154;SDS011;10238;49.556;10.956;2023-12-20T05:58:05;1.40;;;1.30;;
20154;SDS011;10238;49.556;10.956;2023-12-20T06:00:54;1.52;;;1.33;;
20154;SDS011;10238;49.556;10.956;2023-12-20T06:03:42;1.25;;;1.20;;
20154;SDS011;10238;49.556;10.956;2023-12-20T06:06:31;2.00;;;1.25;;
20154;SDS011;10238;49.556;10.956;2023-12-20T06:09:18;1.08;;;1.08;;
20154;SDS011;10238;49.556;10.956;2023-12-20T06:12:06;1.20;;;1.20;;
20154;SDS011;10238;49.556;10.956;2023-12-20T06:14:54;1.55;;;1.30;;
20154;SDS011;10238;49.556;10.956;2023-12-20T06:17:44;1.10;;;1.10;;
20154;SDS011;10238;49.556;10.956;2023-12-20T06:20:34;1.40;;;1.30;;
20154;SDS011;10238;49.556;10.956;2023-12-20T06:23:22;1.27;;;1.17;;
20154;SDS011;10238;49.556;10.956;2023-12-20T06:26:10;1.58;;;1.48;;
20154;SDS011;10238;49.556;10.956;2023-12-20T06:28:57;1.33;;;1.23;;
20154;SDS011;10238;49.556;10.956;2023-12-20T06:31:45;1.10;;;1.10;;
20154;SDS011;10238;49.556;10.956;2023-12-20T06:34:34;1.25;;;1.25;;
20154;SDS011;10238;49.556;10.956;2023-12-20T06:37:21;1.30;;;1.30;;
20154;SDS011;10238;49.556;10.956;2023-12-20T06:40:09;1.10;;;1.10;;
20154;SDS011;10238;49.556;10.956;2023-12-20T06:43:03;1.20;;;1.20;;
20154;SDS011;10238;49.556;10.956;2023-12-20T06:46:05;1.50;;;1.50;;
20154;SDS011;10238;49.556;10.956;2023-12-20T06:48:53;1.48;;;1.38;;
20154;SDS011;10238;49.556;10.956;2023-12-20T06:51:42;1.40;;;1.30;;
20154;SDS011;10238;49.556;10.956;2023-12-20T06:54:30;1.50;;;1.40;;
20154;SDS011;10238;49.556;10.956;2023-12-20T06:57:19;2.33;;;1.55;;
20154;SDS011;10238;49.556;10.956;2023-12-20T07:00:07;1.60;;;1.50;;
20154;SDS011;10238;49.556;10.956;2023-12-20T07:02:57;1.20;;;1.20;;
20154;SDS011;10238;49.556;10.956;2023-12-20T07:05:45;1.33;;;1.25;;
20154;SDS011;10238;49.556;10.956;2023-12-20T07:08:34;1.35;;;1.25;;
20154;SDS011;10238;49.556;10.956;2023-12-20T07:11:21;1.55;;;1.45;;
20154;SDS011;10238;49.556;10.956;2023-12-20T07:14:10;1.65;;;1.55;;
20154;SDS011;10238;49.556;10.956;2023-12-20T07:16:57;1.60;;;1.50;;
20154;SDS011;10238;49.556;10.956;2023-12-20T07:19:45;1.63;;;1.52;;
20154;SDS011;10238;49.556;10.956;2023-12-20T07:22:33;1.80;;;1.70;;
20154;SDS011;10238;49.556;10.956;2023-12-20T07:25:22;2.13;;;2.03;;
20154;SDS011;10238;49.556;10.956;2023-12-20T07:28:10;1.67;;;1.58;;
20154;SDS011;10238;49.556;10.956;2023-12-20T07:30:57;2.55;;;2.08;;
20154;SDS011;10238;49.556;10.956;2023-12-20T07:33:45;1.63;;;1.52;;
20154;SDS011;10238;49.556;10.956;2023-12-20T07:36:33;1.80;;;1.70;;
20154;SDS011;10238;49.556;10.956;2023-12-20T07:39:21;1.98;;;1.75;;
20154;SDS011;10238;49.556;10.956;2023-12-20T07:42:10;1.67;;;1.58;;
20154;SDS011;10238;49.556;10.956;2023-12-20T07:44:58;2.88;;;1.67;;
20154;SDS011;10238;49.556;10.956;2023-12-20T07:47:45;1.60;;;1.50;;
20154;SDS011;10238;49.556;10.956;2023-12-20T07:50:34;1.80;;;1.70;;
20154;SDS011;10238;49.556;10.956;2023-12-20T07:53:23;1.60;;;1.50;;
20154;SDS011;10238;49.556;10.956;2023-12-20T07:56:14;2.03;;;1.55;;
20154;SDS011;10238;49.556;10.956;2023-12-20T07:59:04;1.75;;;1.65;;
20154;SDS011;10238;49.556;10.956;2023-12-20T08:01:57;2.97;;;1.80;;
20154;SDS011;10238;49.556;10.956;2023-12-20T08:04:46;1.65;;;1.55;;
20154;SDS011;10238;49.556;10.956;2023-12-20T08:07:33;1.95;;;1.77;;
20154;SDS011;10238;49.556;10.956;2023-12-20T08:10:20;2.10;;;1.90;;
20154;SDS011;10238;49.556;10.956;2023-12-20T08:13:08;1.95;;;1.73;;
20154;SDS011;10238;49.556;10.956;2023-12-20T08:15:57;1.75;;;1.60;;
20154;SDS011;10238;49.556;10.956;2023-12-20T08:18:47;1.70;;;1.60;;
20154;SDS011;10238;49.556;10.956;2023-12-20T08:21:35;1.30;;;1.20;;
20154;SDS011;10238;49.556;10.956;2023-12-20T08:24:24;1.90;;;1.80;;
20154;SDS011;10238;49.556;10.956;2023-12-20T08:27:11;1.75;;;1.65;;
20154;SDS011;10238;49.556;10.956;2023-12-20T08:29:59;1.65;;;1.55;;
20154;SDS011;10238;49.556;10.956;2023-12-20T08:32:47;2.45;;;1.60;;
20154;SDS011;10238;49.556;10.956;2023-12-20T08:35:35;1.80;;;1.70;;
20154;SDS011;10238;49.556;10.956;2023-12-20T08:38:24;1.98;;;1.88;;
20154;SDS011;10238;49.556;10.956;2023-12-20T08:41:11;2.22;;;2.00;;
20154;SDS011;10238;49.556;10.956;2023-12-20T08:43:59;2.00;;;1.90;;
20154;SDS011;10238;49.556;10.956;2023-12-20T08:46:46;2.25;;;1.40;;
20154;SDS011;10238;49.556;10.956;2023-12-20T08:49:35;2.83;;;2.00;;
20154;SDS011;10238;49.556;10.956;2023-12-20T08:52:25;2.00;;;1.90;;
20154;SDS011;10238;49.556;10.956;2023-12-20T08:55:13;1.23;;;1.23;;
20154;SDS011;10238;49.556;10.956;2023-12-20T08:58:02;1.88;;;1.75;;
20154;SDS011;10238;49.556;10.956;2023-12-20T09:00:52;2.25;;;1.90;;
20154;SDS011;10238;49.556;10.956;2023-12-20T09:03:40;2.72;;;1.70;;
20154;SDS011;10238;49.556;10.956;2023-12-20T09:06:29;2.22;;;2.03;;
20154;SDS011;10238;49.556;10.956;2023-12-20T09:09:17;2.10;;;1.90;;
20154;SDS011;10238;49.556;10.956;2023-12-20T09:12:05;2.30;;;2.10;;
20154;SDS011;10238;49.556;10.956;2023-12-20T09:14:53;2.55;;;1.70;;
20154;SDS011;10238;49.556;10.956;2023-12-20T09:17:40;2.28;;;1.77;;
20154;SDS011;10238;49.556;10.956;2023-12-20T09:20:29;1.98;;;1.80;;
20154;SDS011;10238;49.556;10.956;2023-12-20T09:23:20;2.88;;;2.15;;
20154;SDS011;10238;49.556;10.956;2023-12-20T09:26:07;1.90;;;1.80;;
20154;SDS011;10238;49.556;10.956;2023-12-20T09:28:55;2.70;;;1.73;;
20154;SDS011;10238;49.556;10.956;2023-12-20T09:31:42;5.60;;;2.00;;
20154;SDS011;10238;49.556;10.956;2023-12-20T09:34:32;3.30;;;1.83;;
20154;SDS011;10238;49.556;10.956;2023-12-20T09:37:20;2.10;;;1.80;;
20154;SDS011;10238;49.556;10.956;2023-12-20T09:40:09;3.50;;;1.88;;
20154;SDS011;10238;49.556;10.956;2023-12-20T09:43:03;2.03;;;1.70;;
20154;SDS011;10238;49.556;10.956;2023-12-20T09:45:55;4.18;;;1.73;;
20154;SDS011;10238;49.556;10.956;2023-12-20T09:48:49;1.90;;;1.73;;
20154;SDS011;10238;49.556;10.956;2023-12-20T09:51:37;3.47;;;1.92;;
20154;SDS011;10238;49.556;10.956;2023-12-20T09:54:28;3.38;;;1.70;;
20154;SDS011;10238;49.556;10.956;2023-12-20T09:57:17;1.90;;;1.80;;
20154;SDS011;10238;49.556;10.956;2023-12-20T10:00:05;3.63;;;1.88;;
20154;SDS011;10238;49.556;10.956;2023-12-20T10:02:56;1.80;;;1.70;;
20154;SDS011;10238;49.556;10.956;2023-12-20T10:05:45;2.45;;;1.65;;
20154;SDS011;10238;49.556;10.956;2023-12-20T10:08:35;2.50;;;1.85;;
20154;SDS011;10238;49.556;10.956;2023-12-20T10:11:23;2.28;;;1.77;;
20154;SDS011;10238;49.556;10.956;2023-12-20T10:14:13;1.58;;;1.48;;
20154;SDS011;10238;49.556;10.956;2023-12-20T10:17:02;2.88;;;1.90;;
20154;SDS011;10238;49.556;10.956;2023-12-20T10:19:50;3.47;;;1.98;;
20154;SDS011;10238;49.556;10.956;2023-12-20T10:22:38;5.05;;;1.98;;
20154;SDS011;10238;49.556;10.956;2023-12-20T10:25:26;4.30;;;2.00;;
20154;SDS011;10238;49.556;10.956;2023-12-20T10:28:15;4.30;;;1.65;;
20154;SDS011;10238;49.556;10.956;2023-12-20T10:31:06;1.77;;;1.60;;
20154;SDS011;10238;49.556;10.956;2023-12-20T10:33:55;4.95;;;1.98;;
20154;SDS011;10238;49.556;10.956;2023-12-20T10:36:44;3.15;;;1.67;;
20154;SDS011;10238;49.556;10.956;2023-12-20T10:39:32;3.88;;;1.80;;
20154;SDS011;10238;49.556;10.956;2023-12-20T10:42:21;3.08;;;1.42;;
20154;SDS011;10238;49.556;10.956;2023-12-20T10:45:09;3.78;;;1.63;;
20154;SDS011;10238;49.556;10.956;2023-12-20T10:47:58;3.45;;;1.60;;
20154;SDS011;10238;49.556;10.956;2023-12-20T10:50:48;2.00;;;1.80;;
20154;SDS011;10238;49.556;10.956;2023-12-20T10:53:37;4.60;;;1.83;;
20154;SDS011;10238;49.556;10.956;2023-12-20T10:56:28;2.63;;;1.75;;
20154;SDS011;10238;49.556;10.956;2023-12-20T10:59:19;3.72;;;1.50;;
20154;SDS011;10238;49.556;10.956;2023-12-20T11:02:09;4.65;;;1.88;;
20154;SDS011;10238;49.556;10.956;2023-12-20T11:04:59;3.53;;;1.65;;
20154;SDS011;10238;49.556;10.956;2023-12-20T11:07:58;2.30;;;1.92;;
20154;SDS011;10238;49.556;10.956;2023-12-20T11:10:58;7.28;;;2.50;;
20154;SDS011;10238;49.556;10.956;2023-12-20T11:13:53;7.88;;;4.35;;
20154;SDS011;10238;49.556;10.956;2023-12-20T11:16:47;9.00;;;5.03;;
20154;SDS011;10238;49.556;10.956;2023-12-20T11:19:43;5.63;;;2.60;;
20154;SDS011;10238;49.556;10.956;2023-12-20T11:22:56;7.28;;;2.60;;
20154;SDS011;10238;49.556;10.956;2023-12-20T11:25:46;6.07;;;2.60;;
20154;SDS011;10238;49.556;10.956;2023-12-20T11:28:35;4.28;;;2.58;;
20154;SDS011;10238;49.556;10.956;2023-12-20T11:31:23;6.38;;;2.22;;
20154;SDS011;10238;49.556;10.956;2023-12-20T11:34:13;5.30;;;2.15;;
20154;SDS011;10238;49.556;10.956;2023-12-20T11:37:03;2.80;;;2.03;;
20154;SDS011;10238;49.556;10.956;2023-12-20T11:39:54;2.70;;;1.70;;
20154;SDS011;10238;49.556;10.956;2023-12-20T11:42:43;5.25;;;2.05;;
20154;SDS011;10238;49.556;10.956;2023-12-20T11:45:32;3.13;;;1.92;;
20154;SDS011;10238;49.556;10.956;2023-12-20T11:48:22;2.00;;;1.80;;
20154;SDS011;10238;49.556;10.956;2023-12-20T11:51:10;6.05;;;1.85;;
20154;SDS011;10238;49.556;10.956;2023-12-20T11:54:00;6.55;;;1.95;;
20154;SDS011;10238;49.556;10.956;2023-12-20T11:56:48;2.67;;;1.40;;
20154;SDS011;10238;49.556;10.956;2023-12-20T11:59:36;2.50;;;1.95;;
20154;SDS011;10238;49.556;10.956;2023-12-20T12:02:23;2.65;;;1.77;;
20154;SDS011;10238;49.556;10.956;2023-12-20T12:05:11;2.70;;;1.60;;
20154;SDS011;10238;49.556;10.956;2023-12-20T12:07:59;3.10;;;1.60;;
20154;SDS011;10238;49.556;10.956;2023-12-20T12:10:48;2.75;;;2.08;;
20154;SDS011;10238;49.556;10.956;2023-12-20T12:13:36;5.25;;;1.70;;
20154;SDS011;10238;49.556;10.956;2023-12-20T12:16:23;2.00;;;1.58;;
20154;SDS011;10238;49.556;10.956;2023-12-20T12:19:19;4.95;;;1.98;;
20154;SDS011;10238;49.556;10.956;2023-12-20T12:22:08;3.92;;;1.88;;
20154;SDS011;10238;49.556;10.956;2023-12-20T12:25:09;3.08;;;2.28;;
20154;SDS011;10238;49.556;10.956;2023-12-20T12:27:59;2.85;;;1.90;;
20154;SDS011;10238;49.556;10.956;2023-12-20T12:30:55;6.25;;;2.50;;
20154;SDS011;10238;49.556;10.956;2023-12-20T12:33:44;4.65;;;1.83;;
20154;SDS011;10238;49.556;10.956;2023-12-20T12:36:33;3.22;;;1.75;;
20154;SDS011;10238;49.556;10.956;2023-12-20T12:39:21;2.30;;;1.30;;
20154;SDS011;10238;49.556;10.956;2023-12-20T12:42:11;5.13;;;2.00;;
20154;SDS011;10238;49.556;10.956;2023-12-20T12:45:01;4.78;;;2.15;;
20154;SDS011;10238;49.556;10.956;2023-12-20T12:47:50;3.70;;;1.95;;
20154;SDS011;10238;49.556;10.956;2023-12-20T12:50:40;2.00;;;1.80;;
20154;SDS011;10238;49.556;10.956;2023-12-20T12:53:28;2.65;;;1.92;;
20154;SDS011;10238;49.556;10.956;2023-12-20T12:56:17;5.28;;;2.00;;
20154;SDS011;10238;49.556;10.956;2023-12-20T12:59:05;3.05;;;1.92;;
20154;SDS011;10238;49.556;10.956;2023-12-20T13:01:54;3.00;;;1.50;;
20154;SDS011;10238;49.556;10.956;2023-12-20T13:04:42;2.53;;;1.80;;
20154;SDS011;10238;49.556;10.956;2023-12-20T13:07:30;3.13;;;1.88;;
20154;SDS011;10238;49.556;10.956;2023-12-20T13:10:18;3.97;;;1.90;;
20154;SDS011;10238;49.556;10.956;2023-12-20T13:13:06;2.42;;;1.42;;
20154;SDS011;10238;49.556;10.956;2023-12-20T13:15:54;5.70;;;1.90;;
20154;SDS011;10238;49.556;10.956;2023-12-20T13:18:43;2.95;;;1.90;;
20154;SDS011;10238;49.556;10.956;2023-12-20T13:21:31;7.45;;;1.90;;
20154;SDS011;10238;49.556;10.956;2023-12-20T13:24:18;2.17;;;1.70;;
20154;SDS011;10238;49.556;10.956;2023-12-20T13:27:06;8.00;;;2.22;;
20154;SDS011;10238;49.556;10.956;2023-12-20T13:29:53;5.85;;;2.13;;
20154;SDS011;10238;49.556;10.956;2023-12-20T13:32:41;5.15;;;2.08;;
20154;SDS011;10238;49.556;10.956;2023-12-20T13:35:31;3.33;;;2.08;;
20154;SDS011;10238;49.556;10.956;2023-12-20T13:38:19;2.05;;;1.65;;
20154;SDS011;10238;49.556;10.956;2023-12-20T13:41:06;3.33;;;2.20;;
20154;SDS011;10238;49.556;10.956;2023-12-20T13:43:54;3.47;;;1.52;;
20154;SDS011;10238;49.556;10.956;2023-12-20T13:46:41;1.98;;;1.77;;
20154;SDS011;10238;49.556;10.956;2023-12-20T13:49:29;4.05;;;1.95;;
20154;SDS011;10238;49.556;10.956;2023-12-20T13:52:18;5.88;;;2.20;;
20154;SDS011;10238;49.556;10.956;2023-12-20T13:55:06;3.50;;;2.03;;
20154;SDS011;10238;49.556;10.956;2023-12-20T13:57:54;3.00;;;2.22;;
20154;SDS011;10238;49.556;10.956;2023-12-20T14:00:43;4.00;;;1.80;;
20154;SDS011;10238;49.556;10.956;2023-12-20T14:03:31;4.32;;;2.00;;
20154;SDS011;10238;49.556;10.956;2023-12-20T14:06:19;3.92;;;2.10;;
20154;SDS011;10238;49.556;10.956;2023-12-20T14:09:07;3.75;;;2.00;;
20154;SDS011;10238;49.556;10.956;2023-12-20T14:11:57;4.63;;;2.05;;
20154;SDS011;10238;49.556;10.956;2023-12-20T14:14:45;2.28;;;1.80;;
20154;SDS011;10238;49.556;10.956;2023-12-20T14:17:33;4.65;;;1.90;;
20154;SDS011;10238;49.556;10.956;2023-12-20T14:20:20;6.03;;;2.40;;
20154;SDS011;10238;49.556;10.956;2023-12-20T14:23:08;5.57;;;2.38;;
20154;SDS011;10238;49.556;10.956;2023-12-20T14:25:57;4.65;;;2.55;;
20154;SDS011;10238;49.556;10.956;2023-12-20T14:28:45;3.55;;;2.10;;
20154;SDS011;10238;49.556;10.956;2023-12-20T14:31:32;3.13;;;2.00;;
20154;SDS011;10238;49.556;10.956;2023-12-20T14:34:20;29.38;;;9.38;;
20154;SDS011;10238;49.556;10.956;2023-12-20T14:37:10;25.65;;;6.65;;
20154;SDS011;10238;49.556;10.956;2023-12-20T14:39:57;15.98;;;5.65;;
20154;SDS011;10238;49.556;10.956;2023-12-20T14:42:46;8.55;;;3.83;;
20154;SDS011;10238;49.556;10.956;2023-12-20T14:45:34;10.18;;;4.15;;
20154;SDS011;10238;49.556;10.956;2023-12-20T14:48:22;7.00;;;3.33;;
20154;SDS011;10238;49.556;10.956;2023-12-20T14:51:09;6.72;;;2.90;;
20154;SDS011;10238;49.556;10.956;2023-12-20T14:53:57;6.45;;;2.47;;
20154;SDS011;10238;49.556;10.956;2023-12-20T14:56:45;4.82;;;2.85;;
20154;SDS011;10238;49.556;10.956;2023-12-20T14:59:34;6.55;;;2.78;;
20154;SDS011;10238;49.556;10.956;2023-12-20T15:02:21;4.93;;;2.67;;
20154;SDS011;10238;49.556;10.956;2023-12-20T15:05:09;7.07;;;2.80;;
20154;SDS011;10238;49.556;10.956;2023-12-20T15:07:56;4.05;;;2.38;;
20154;SDS011;10238;49.556;10.956;2023-12-20T15:10:44;4.50;;;2.65;;
20154;SDS011;10238;49.556;10.956;2023-12-20T15:13:32;3.70;;;2.40;;
20154;SDS011;10238;49.556;10.956;2023-12-20T15:16:21;6.63;;;2.65;;
20154;SDS011;10238;49.556;10.956;2023-12-20T15:19:09;4.20;;;2.97;;
20154;SDS011;10238;49.556;10.956;2023-12-20T15:21:56;8.38;;;3.63;;
20154;SDS011;10238;49.556;10.956;2023-12-20T15:24:45;4.60;;;3.20;;
20154;SDS011;10238;49.556;10.956;2023-12-20T15:27:33;4.43;;;2.85;;
20154;SDS011;10238;49.556;10.956;2023-12-20T15:30:23;11.68;;;5.40;;
20154;SDS011;10238;49.556;10.956;2023-12-20T15:33:12;4.40;;;2.80;;
20154;SDS011;10238;49.556;10.956;2023-12-20T15:35:59;29.55;;;17.08;;
20154;SDS011;10238;49.556;10.956;2023-12-20T15:38:47;9.20;;;6.30;;
20154;SDS011;10238;49.556;10.956;2023-12-20T15:41:34;9.50;;;3.92;;
20154;SDS011;10238;49.556;10.956;2023-12-20T15:44:22;8.30;;;2.90;;
20154;SDS011;10238;49.556;10.956;2023-12-20T15:47:09;3.97;;;2.88;;
20154;SDS011;10238;49.556;10.956;2023-12-20T15:49:58;2.78;;;2.00;;
20154;SDS011;10238;49.556;10.956;2023-12-20T15:52:46;3.50;;;2.47;;
20154;SDS011;10238;49.556;10.956;2023-12-20T15:55:33;3.10;;;2.40;;
20154;SDS011;10238;49.556;10.956;2023-12-20T15:58:21;3.28;;;2.60;;
20154;SDS011;10238;49.556;10.956;2023-12-20T16:01:08;6.82;;;3.15;;
20154;SDS011;10238;49.556;10.956;2023-12-20T16:03:56;11.10;;;7.15;;
20154;SDS011;10238;49.556;10.956;2023-12-20T16:06:46;9.93;;;6.80;;
20154;SDS011;10238;49.556;10.956;2023-12-20T16:09:34;9.27;;;4.80;;
20154;SDS011;10238;49.556;10.956;2023-12-20T16:12:22;6.05;;;4.65;;
20154;SDS011;10238;49.556;10.956;2023-12-20T16:15:09;6.55;;;4.47;;
20154;SDS011;10238;49.556;10.956;2023-12-20T16:17:57;7.05;;;4.90;;
20154;SDS011;10238;49.556;10.956;2023-12-20T16:20:45;5.18;;;4.60;;
20154;SDS011;10238;49.556;10.956;2023-12-20T16:23:34;6.72;;;3.53;;
20154;SDS011;10238;49.556;10.956;2023-12-20T16:26:21;7.22;;;4.00;;
20154;SDS011;10238;49.556;10.956;2023-12-20T16:29:09;7.65;;;3.85;;
20154;SDS011;10238;49.556;10.956;2023-12-20T16:31:58;4.45;;;3.03;;
20154;SDS011;10238;49.556;10.956;2023-12-20T16:34:45;4.38;;;3.70;;
20154;SDS011;10238;49.556;10.956;2023-12-20T16:37:34;5.35;;;3.17;;
20154;SDS011;10238;49.556;10.956;2023-12-20T16:40:25;7.20;;;3.45;;